sensor_id;sensor_type;location;lat;lon;timestamp;pressure;altitude;pressure_sealevel;temperature;humidity
46778;BME280;32536;47.128;8.746;2023-02-13T00:00:43;93173.59;;;3.73;50.76
46778;BME280;32536;47.128;8.746;2023-02-13T00:03:10;93171.91;;;3.68;51.20
46778;BME280;32536;47.128;8.746;2023-02-13T00:05:37;93169.13;;;3.65;50.73
46778;BME280;32536;47.128;8.746;2023-02-13T00:08:04;93170.88;;;3.61;50.91
46778;BME280;32536;47.128;8.746;2023-02-13T00:10:31;93167.00;;;3.58;51.10
46778;BME280;32536;47.128;8.746;2023-02-13T00:12:58;93170.28;;;3.55;51.07
46778;BME280;32536;47.128;8.746;2023-02-13T00:15:25;93161.78;;;3.49;51.14
46778;BME280;32536;47.128;8.746;2023-02-13T00:17:51;93171.91;;;3.47;51.20
46778;BME280;32536;47.128;8.746;2023-02-13T00:20:18;93167.06;;;3.49;50.81
46778;BME280;32536;47.128;8.746;2023-02-13T00:22:45;93168.94;;;3.49;51.13
46778;BME280;32536;47.128;8.746;2023-02-13T00:25:12;93171.91;;;3.47;51.07
46778;BME280;32536;47.128;8.746;2023-02-13T00:27:39;93164.44;;;3.49;50.96
46778;BME280;32536;47.128;8.746;2023-02-13T00:30:06;93165.66;;;3.52;50.56
46778;BME280;32536;47.128;8.746;2023-02-13T00:32:33;93170.28;;;3.55;50.88
46778;BME280;32536;47.128;8.746;2023-02-13T00:35:00;93175.59;;;3.55;50.86
46778;BME280;32536;47.128;8.746;2023-02-13T00:37:26;93170.16;;;3.51;50.79
46778;BME280;32536;47.128;8.746;2023-02-13T00:39:53;93161.78;;;3.49;51.01
46778;BME280;32536;47.128;8.746;2023-02-13T00:42:21;93171.16;;;3.47;50.88
46778;BME280;32536;47.128;8.746;2023-02-13T00:44:51;93170.22;;;3.43;50.91
46778;BME280;32536;47.128;8.746;2023-02-13T00:47:19;93168.66;;;3.42;51.13
46778;BME280;32536;47.128;8.746;2023-02-13T00:49:45;93165.09;;;3.38;50.69
46778;BME280;32536;47.128;8.746;2023-02-13T00:52:12;93178.22;;;3.34;50.86
46778;BME280;32536;47.128;8.746;2023-02-13T00:54:39;93169.81;;;3.32;51.27
46778;BME280;32536;47.128;8.746;2023-02-13T00:57:06;93175.75;;;3.29;51.11
46778;BME280;32536;47.128;8.746;2023-02-13T00:59:32;93174.06;;;3.24;51.41
46778;BME280;32536;47.128;8.746;2023-02-13T01:01:59;93183.28;;;3.18;51.45
46778;BME280;32536;47.128;8.746;2023-02-13T01:04:26;93174.88;;;3.16;51.64
46778;BME280;32536;47.128;8.746;2023-02-13T01:06:53;93173.47;;;3.18;51.70
46778;BME280;32536;47.128;8.746;2023-02-13T01:09:19;93169.09;;;3.23;51.84
46778;BME280;32536;47.128;8.746;2023-02-13T01:11:46;93182.16;;;3.28;51.61
46778;BME280;32536;47.128;8.746;2023-02-13T01:14:13;93174.66;;;3.30;51.45
46778;BME280;32536;47.128;8.746;2023-02-13T01:16:39;93178.09;;;3.30;51.07
46778;BME280;32536;47.128;8.746;2023-02-13T01:19:06;93174.84;;;3.25;50.72
46778;BME280;32536;47.128;8.746;2023-02-13T01:21:33;93176.25;;;3.22;51.18
46778;BME280;32536;47.128;8.746;2023-02-13T01:24:03;93176.56;;;3.20;51.00
46778;BME280;32536;47.128;8.746;2023-02-13T01:26:30;93179.69;;;3.23;51.12
46778;BME280;32536;47.128;8.746;2023-02-13T01:28:57;93184.72;;;3.15;51.33
46778;BME280;32536;47.128;8.746;2023-02-13T01:31:24;93185.06;;;3.05;51.11
46778;BME280;32536;47.128;8.746;2023-02-13T01:33:51;93191.47;;;2.95;51.71
46778;BME280;32536;47.128;8.746;2023-02-13T01:36:20;93174.41;;;2.84;51.50
46778;BME280;32536;47.128;8.746;2023-02-13T01:38:47;93180.50;;;2.76;51.81
46778;BME280;32536;47.128;8.746;2023-02-13T01:41:17;93181.59;;;2.75;52.23
46778;BME280;32536;47.128;8.746;2023-02-13T01:43:55;93182.69;;;2.74;51.45
46778;BME280;32536;47.128;8.746;2023-02-13T01:46:36;93180.66;;;2.70;52.04
46778;BME280;32536;47.128;8.746;2023-02-13T01:49:13;93187.06;;;2.69;52.21
46778;BME280;32536;47.128;8.746;2023-02-13T01:51:46;93179.13;;;2.69;52.41
46778;BME280;32536;47.128;8.746;2023-02-13T01:54:23;93187.06;;;2.69;52.82
46778;BME280;32536;47.128;8.746;2023-02-13T01:57:02;93194.22;;;2.69;52.26
46778;BME280;32536;47.128;8.746;2023-02-13T01:59:38;93191.06;;;2.76;52.21
46778;BME280;32536;47.128;8.746;2023-02-13T02:02:11;93191.03;;;2.84;52.10
46778;BME280;32536;47.128;8.746;2023-02-13T02:04:41;93191.19;;;2.88;51.50
46778;BME280;32536;47.128;8.746;2023-02-13T02:07:19;93192.31;;;2.87;51.34
46778;BME280;32536;47.128;8.746;2023-02-13T02:09:51;93188.88;;;2.86;51.73
46778;BME280;32536;47.128;8.746;2023-02-13T02:15:08;93193.59;;;2.72;51.04
46778;BME280;32536;47.128;8.746;2023-02-13T02:17:35;93194.56;;;2.67;51.22
46778;BME280;32536;47.128;8.746;2023-02-13T02:20:20;93190.50;;;2.61;50.45
46778;BME280;32536;47.128;8.746;2023-02-13T02:29:13;93197.88;;;2.47;50.76
46778;BME280;32536;47.128;8.746;2023-02-13T02:38:03;93203.16;;;2.38;51.50
46778;BME280;32536;47.128;8.746;2023-02-13T02:43:49;93193.81;;;2.32;50.68
46778;BME280;32536;47.128;8.746;2023-02-13T02:53:07;93197.59;;;2.31;50.86
46778;BME280;32536;47.128;8.746;2023-02-13T02:55:47;93198.03;;;2.33;51.38
46778;BME280;32536;47.128;8.746;2023-02-13T03:01:31;93192.28;;;2.39;51.26
46778;BME280;32536;47.128;8.746;2023-02-13T03:04:53;93191.81;;;2.37;51.32
46778;BME280;32536;47.128;8.746;2023-02-13T03:07:40;93194.13;;;2.39;51.77
46778;BME280;32536;47.128;8.746;2023-02-13T03:10:10;93192.44;;;2.43;51.84
46778;BME280;32536;47.128;8.746;2023-02-13T03:13:14;93192.41;;;2.52;51.56
46778;BME280;32536;47.128;8.746;2023-02-13T03:15:56;93197.19;;;2.59;51.39
46778;BME280;32536;47.128;8.746;2023-02-13T03:18:46;93192.19;;;2.66;51.14
46778;BME280;32536;47.128;8.746;2023-02-13T03:21:43;93203.72;;;2.70;50.96
46778;BME280;32536;47.128;8.746;2023-02-13T03:27:49;93206.38;;;2.61;50.99
46778;BME280;32536;47.128;8.746;2023-02-13T03:37:01;93210.03;;;2.13;51.64
46778;BME280;32536;47.128;8.746;2023-02-13T03:40:02;93210.63;;;2.18;51.46
46778;BME280;32536;47.128;8.746;2023-02-13T03:43:11;93210.50;;;2.23;51.42
46778;BME280;32536;47.128;8.746;2023-02-13T03:45:44;93212.19;;;2.28;51.94
46778;BME280;32536;47.128;8.746;2023-02-13T03:48:26;93217.03;;;2.26;51.77
46778;BME280;32536;47.128;8.746;2023-02-13T03:51:26;93218.25;;;2.29;51.56
46778;BME280;32536;47.128;8.746;2023-02-13T03:53:59;93218.09;;;2.34;51.67
46778;BME280;32536;47.128;8.746;2023-02-13T03:56:30;93216.84;;;2.40;51.65
46778;BME280;32536;47.128;8.746;2023-02-13T03:59:24;93220.72;;;2.43;51.58
46778;BME280;32536;47.128;8.746;2023-02-13T04:06:54;93219.50;;;2.40;51.18
46778;BME280;32536;47.128;8.746;2023-02-13T04:09:26;93224.00;;;2.39;51.54
46778;BME280;32536;47.128;8.746;2023-02-13T04:17:36;93230.84;;;2.49;50.55
46778;BME280;32536;47.128;8.746;2023-02-13T04:20:07;93240.50;;;2.54;51.46
46778;BME280;32536;47.128;8.746;2023-02-13T04:22:41;93239.69;;;2.53;50.72
46778;BME280;32536;47.128;8.746;2023-02-13T04:25:09;93241.72;;;2.56;51.41
46778;BME280;32536;47.128;8.746;2023-02-13T04:27:36;93239.53;;;2.59;51.19
46778;BME280;32536;47.128;8.746;2023-02-13T04:30:04;93242.97;;;2.59;51.28
46778;BME280;32536;47.128;8.746;2023-02-13T04:32:32;93237.03;;;2.62;50.73
46778;BME280;32536;47.128;8.746;2023-02-13T04:34:58;93230.66;;;2.63;50.78
46778;BME280;32536;47.128;8.746;2023-02-13T04:37:25;93242.03;;;2.64;50.53
46778;BME280;32536;47.128;8.746;2023-02-13T04:39:52;93240.47;;;2.63;50.85
46778;BME280;32536;47.128;8.746;2023-02-13T04:42:19;93240.16;;;2.55;51.03
46778;BME280;32536;47.128;8.746;2023-02-13T04:44:55;93246.25;;;2.47;50.69
46778;BME280;32536;47.128;8.746;2023-02-13T04:47:22;93242.03;;;2.46;51.33
46778;BME280;32536;47.128;8.746;2023-02-13T04:49:49;93239.88;;;2.48;51.52
46778;BME280;32536;47.128;8.746;2023-02-13T04:52:16;93245.31;;;2.52;51.28
46778;BME280;32536;47.128;8.746;2023-02-13T04:54:42;93238.28;;;2.56;51.08
46778;BME280;32536;47.128;8.746;2023-02-13T04:57:09;93242.16;;;2.59;51.21
46778;BME280;32536;47.128;8.746;2023-02-13T04:59:36;93240.75;;;2.61;51.35
46778;BME280;32536;47.128;8.746;2023-02-13T05:02:03;93242.03;;;2.64;51.14
46778;BME280;32536;47.128;8.746;2023-02-13T05:04:29;93240.91;;;2.65;51.22
46778;BME280;32536;47.128;8.746;2023-02-13T05:06:56;93239.81;;;2.66;51.33
46778;BME280;32536;47.128;8.746;2023-02-13T05:09:23;93235.94;;;2.63;50.75
46778;BME280;32536;47.128;8.746;2023-02-13T05:11:51;93241.72;;;2.56;51.05
46778;BME280;32536;47.128;8.746;2023-02-13T05:14:19;93240.16;;;2.55;51.55
46778;BME280;32536;47.128;8.746;2023-02-13T05:16:46;93242.50;;;2.57;51.58
46778;BME280;32536;47.128;8.746;2023-02-13T05:19:15;93244.22;;;2.62;51.49
46778;BME280;32536;47.128;8.746;2023-02-13T05:21:42;93237.50;;;2.64;51.21
46778;BME280;32536;47.128;8.746;2023-02-13T05:24:27;93241.84;;;2.69;51.07
46778;BME280;32536;47.128;8.746;2023-02-13T05:26:54;93240.44;;;2.71;50.85
46778;BME280;32536;47.128;8.746;2023-02-13T05:29:21;93248.25;;;2.68;50.59
46778;BME280;32536;47.128;8.746;2023-02-13T05:31:52;93242.97;;;2.59;50.40
46778;BME280;32536;47.128;8.746;2023-02-13T05:34:22;93240.47;;;2.45;50.55
46778;BME280;32536;47.128;8.746;2023-02-13T05:36:49;93245.63;;;2.33;51.09
46778;BME280;32536;47.128;8.746;2023-02-13T05:39:16;93232.56;;;2.28;50.84
46778;BME280;32536;47.128;8.746;2023-02-13T05:41:44;93242.06;;;2.20;51.23
46778;BME280;32536;47.128;8.746;2023-02-13T05:44:11;93247.22;;;2.16;50.92
46778;BME280;32536;47.128;8.746;2023-02-13T05:46:40;93242.69;;;2.08;51.47
46778;BME280;32536;47.128;8.746;2023-02-13T05:49:08;93243.13;;;2.01;51.52
46778;BME280;32536;47.128;8.746;2023-02-13T05:51:36;93244.09;;;1.97;51.84
46778;BME280;32536;47.128;8.746;2023-02-13T05:54:03;93243.47;;;2.00;51.81
46778;BME280;32536;47.128;8.746;2023-02-13T05:56:30;93240.22;;;2.03;51.37
46778;BME280;32536;47.128;8.746;2023-02-13T05:58:57;93245.34;;;2.08;51.43
46778;BME280;32536;47.128;8.746;2023-02-13T06:01:23;93243.94;;;2.11;51.73
46778;BME280;32536;47.128;8.746;2023-02-13T06:03:50;93229.00;;;2.15;51.63
46778;BME280;32536;47.128;8.746;2023-02-13T06:06:17;93239.88;;;2.22;51.74
46778;BME280;32536;47.128;8.746;2023-02-13T06:08:44;93240.81;;;2.26;51.44
46778;BME280;32536;47.128;8.746;2023-02-13T06:11:11;93234.59;;;2.31;51.18
46778;BME280;32536;47.128;8.746;2023-02-13T06:13:38;93238.94;;;2.35;50.95
46778;BME280;32536;47.128;8.746;2023-02-13T06:16:07;93241.72;;;2.39;51.17
46778;BME280;32536;47.128;8.746;2023-02-13T06:18:35;93245.94;;;2.40;51.01
46778;BME280;32536;47.128;8.746;2023-02-13T06:21:02;93241.44;;;2.40;51.21
46778;BME280;32536;47.128;8.746;2023-02-13T06:23:29;93252.19;;;2.44;51.08
46778;BME280;32536;47.128;8.746;2023-02-13T06:26:01;93245.16;;;2.48;50.68
46778;BME280;32536;47.128;8.746;2023-02-13T06:28:31;93256.81;;;2.47;51.27
46778;BME280;32536;47.128;8.746;2023-02-13T06:30:59;93257.59;;;2.48;51.20
46778;BME280;32536;47.128;8.746;2023-02-13T06:33:26;93256.06;;;2.47;50.93
46778;BME280;32536;47.128;8.746;2023-02-13T06:35:53;93260.22;;;2.48;50.75
46778;BME280;32536;47.128;8.746;2023-02-13T06:38:20;93263.84;;;2.43;51.21
46778;BME280;32536;47.128;8.746;2023-02-13T06:40:47;93268.66;;;2.41;50.72
46778;BME280;32536;47.128;8.746;2023-02-13T06:43:15;93260.25;;;2.39;50.90
46778;BME280;32536;47.128;8.746;2023-02-13T06:45:42;93275.66;;;2.37;51.27
46778;BME280;32536;47.128;8.746;2023-02-13T06:48:11;93262.59;;;2.32;51.20
46778;BME280;32536;47.128;8.746;2023-02-13T06:50:38;93268.19;;;2.30;51.31
46778;BME280;32536;47.128;8.746;2023-02-13T06:53:05;93267.72;;;2.28;51.25
46778;BME280;32536;47.128;8.746;2023-02-13T06:55:32;93276.59;;;2.32;51.44
46778;BME280;32536;47.128;8.746;2023-02-13T06:57:59;93273.31;;;2.35;51.39
46778;BME280;32536;47.128;8.746;2023-02-13T07:00:25;93283.59;;;2.37;51.32
46778;BME280;32536;47.128;8.746;2023-02-13T07:02:52;93280.16;;;2.36;51.37
46778;BME280;32536;47.128;8.746;2023-02-13T07:05:19;93278.31;;;2.37;51.27
46778;BME280;32536;47.128;8.746;2023-02-13T07:07:46;93279.84;;;2.38;50.91
46778;BME280;32536;47.128;8.746;2023-02-13T07:10:13;93282.97;;;2.40;51.10
46778;BME280;32536;47.128;8.746;2023-02-13T07:12:40;93273.94;;;2.41;51.17
46778;BME280;32536;47.128;8.746;2023-02-13T07:15:07;93271.31;;;2.41;50.82
46778;BME280;32536;47.128;8.746;2023-02-13T07:17:34;93275.03;;;2.40;51.15
46778;BME280;32536;47.128;8.746;2023-02-13T07:20:03;93279.25;;;2.41;50.75
46778;BME280;32536;47.128;8.746;2023-02-13T07:22:31;93277.84;;;2.44;51.13
46778;BME280;32536;47.128;8.746;2023-02-13T07:24:58;93275.66;;;2.46;51.31
46778;BME280;32536;47.128;8.746;2023-02-13T07:27:26;93274.25;;;2.48;51.05
46778;BME280;32536;47.128;8.746;2023-02-13T07:29:55;93280.78;;;2.51;50.91
46778;BME280;32536;47.128;8.746;2023-02-13T07:32:23;93277.06;;;2.52;51.42
46778;BME280;32536;47.128;8.746;2023-02-13T07:34:50;93274.72;;;2.59;51.99
46778;BME280;32536;47.128;8.746;2023-02-13T07:37:17;93281.88;;;2.67;51.71
46778;BME280;32536;47.128;8.746;2023-02-13T07:39:43;93278.13;;;2.77;52.00
46778;BME280;32536;47.128;8.746;2023-02-13T07:42:10;93279.34;;;2.88;51.21
46778;BME280;32536;47.128;8.746;2023-02-13T07:45:08;93284.94;;;2.96;50.43
46778;BME280;32536;47.128;8.746;2023-02-13T07:47:34;93283.00;;;3.05;50.83
46778;BME280;32536;47.128;8.746;2023-02-13T07:50:02;93288.47;;;3.09;50.44
46778;BME280;32536;47.128;8.746;2023-02-13T07:52:30;93285.81;;;3.09;50.40
46778;BME280;32536;47.128;8.746;2023-02-13T07:54:58;93283.94;;;3.09;50.58
46778;BME280;32536;47.128;8.746;2023-02-13T07:57:24;93283.50;;;3.07;50.81
46778;BME280;32536;47.128;8.746;2023-02-13T07:59:51;93285.38;;;2.98;50.40
46778;BME280;32536;47.128;8.746;2023-02-13T08:02:18;93283.69;;;2.84;49.97
46778;BME280;32536;47.128;8.746;2023-02-13T08:04:44;93282.94;;;2.75;50.41
46778;BME280;32536;47.128;8.746;2023-02-13T08:07:12;93288.69;;;2.68;50.58
46778;BME280;32536;47.128;8.746;2023-02-13T08:09:40;93286.22;;;2.63;50.85
46778;BME280;32536;47.128;8.746;2023-02-13T08:12:27;93287.63;;;2.61;50.75
46778;BME280;32536;47.128;8.746;2023-02-13T08:14:53;93289.66;;;2.64;51.02
46778;BME280;32536;47.128;8.746;2023-02-13T08:17:20;93292.31;;;2.64;50.91
46778;BME280;32536;47.128;8.746;2023-02-13T08:19:47;93290.75;;;2.63;51.33
46778;BME280;32536;47.128;8.746;2023-02-13T08:22:14;93288.09;;;2.63;50.81
46778;BME280;32536;47.128;8.746;2023-02-13T08:24:41;93289.50;;;2.60;50.95
46778;BME280;32536;47.128;8.746;2023-02-13T08:27:11;93287.94;;;2.59;51.22
46778;BME280;32536;47.128;8.746;2023-02-13T08:29:38;93290.59;;;2.59;51.51
46778;BME280;32536;47.128;8.746;2023-02-13T08:32:05;93284.22;;;2.60;51.36
46778;BME280;32536;47.128;8.746;2023-02-13T08:34:32;93285.75;;;2.61;51.63
46778;BME280;32536;47.128;8.746;2023-02-13T08:37:00;93280.94;;;2.63;51.36
46778;BME280;32536;47.128;8.746;2023-02-13T08:39:27;93286.38;;;2.67;51.44
46778;BME280;32536;47.128;8.746;2023-02-13T08:41:54;93282.31;;;2.69;51.49
46778;BME280;32536;47.128;8.746;2023-02-13T08:44:21;93285.13;;;2.73;51.49
46778;BME280;32536;47.128;8.746;2023-02-13T08:46:47;93285.75;;;2.79;51.59
46778;BME280;32536;47.128;8.746;2023-02-13T08:49:14;93282.59;;;2.85;51.47
46778;BME280;32536;47.128;8.746;2023-02-13T08:51:41;93277.59;;;2.93;51.93
46778;BME280;32536;47.128;8.746;2023-02-13T08:54:08;93282.56;;;3.03;52.09
46778;BME280;32536;47.128;8.746;2023-02-13T08:56:34;93274.13;;;3.10;52.01
46778;BME280;32536;47.128;8.746;2023-02-13T08:59:01;93271.78;;;3.17;52.01
46778;BME280;32536;47.128;8.746;2023-02-13T09:01:28;93278.13;;;3.25;51.82
46778;BME280;32536;47.128;8.746;2023-02-13T09:03:55;93275.31;;;3.30;52.29
46778;BME280;32536;47.128;8.746;2023-02-13T09:06:22;93281.34;;;3.39;51.97
46778;BME280;32536;47.128;8.746;2023-02-13T09:08:51;93273.38;;;3.48;52.02
46778;BME280;32536;47.128;8.746;2023-02-13T09:11:18;93275.66;;;3.58;52.47
46778;BME280;32536;47.128;8.746;2023-02-13T09:13:48;93274.19;;;3.69;52.10
46778;BME280;32536;47.128;8.746;2023-02-13T09:16:17;93265.56;;;3.81;52.15
46778;BME280;32536;47.128;8.746;2023-02-13T09:18:48;93268.28;;;3.94;51.66
46778;BME280;32536;47.128;8.746;2023-02-13T09:21:16;93273.66;;;4.06;51.82
46778;BME280;32536;47.128;8.746;2023-02-13T09:23:44;93273.28;;;4.16;52.04
46778;BME280;32536;47.128;8.746;2023-02-13T09:26:14;93279.28;;;4.26;52.07
46778;BME280;32536;47.128;8.746;2023-02-13T09:28:41;93274.72;;;4.35;52.11
46778;BME280;32536;47.128;8.746;2023-02-13T09:31:11;93276.97;;;4.45;52.22
46778;BME280;32536;47.128;8.746;2023-02-13T09:33:45;93283.75;;;4.55;52.16
46778;BME280;32536;47.128;8.746;2023-02-13T09:36:18;93278.19;;;4.69;52.24
46778;BME280;32536;47.128;8.746;2023-02-13T09:38:47;93280.09;;;4.81;52.04
46778;BME280;32536;47.128;8.746;2023-02-13T09:41:48;93283.91;;;4.92;51.53
46778;BME280;32536;47.128;8.746;2023-02-13T09:47:21;93287.59;;;5.12;51.45
46778;BME280;32536;47.128;8.746;2023-02-13T09:50:16;93287.63;;;5.25;51.68
46778;BME280;32536;47.128;8.746;2023-02-13T09:52:45;93292.06;;;5.33;52.18
46778;BME280;32536;47.128;8.746;2023-02-13T09:55:17;93279.00;;;5.40;52.02
46778;BME280;32536;47.128;8.746;2023-02-13T10:00:56;93287.31;;;5.64;51.88
46778;BME280;32536;47.128;8.746;2023-02-13T10:03:38;93291.41;;;5.73;51.68
46778;BME280;32536;47.128;8.746;2023-02-13T10:06:38;93285.66;;;5.84;51.48
46778;BME280;32536;47.128;8.746;2023-02-13T10:09:39;93287.09;;;5.93;51.58
46778;BME280;32536;47.128;8.746;2023-02-13T10:12:44;93287.47;;;6.04;51.72
46778;BME280;32536;47.128;8.746;2023-02-13T10:15:56;93283.88;;;6.13;50.95
46778;BME280;32536;47.128;8.746;2023-02-13T10:19:01;93287.66;;;6.24;51.17
46778;BME280;32536;47.128;8.746;2023-02-13T10:22:19;93281.84;;;6.34;51.04
46778;BME280;32536;47.128;8.746;2023-02-13T10:25:15;93280.50;;;6.40;51.39
46778;BME280;32536;47.128;8.746;2023-02-13T10:27:52;93280.25;;;6.46;52.22
46778;BME280;32536;47.128;8.746;2023-02-13T10:30:25;93279.34;;;6.54;50.44
46778;BME280;32536;47.128;8.746;2023-02-13T10:33:02;93278.44;;;6.62;51.82
46778;BME280;32536;47.128;8.746;2023-02-13T10:38:32;93282.38;;;6.81;52.38
46778;BME280;32536;47.128;8.746;2023-02-13T11:01:56;93256.06;;;7.40;51.76
46778;BME280;32536;47.128;8.746;2023-02-13T11:04:43;93242.91;;;7.47;52.17
46778;BME280;32536;47.128;8.746;2023-02-13T11:07:14;93248.84;;;7.56;52.02
46778;BME280;32536;47.128;8.746;2023-02-13T11:09:44;93246.44;;;7.67;52.55
46778;BME280;32536;47.128;8.746;2023-02-13T11:12:34;93242.88;;;7.79;51.75
46778;BME280;32536;47.128;8.746;2023-02-13T11:15:05;93241.22;;;7.90;51.75
46778;BME280;32536;47.128;8.746;2023-02-13T11:17:36;93237.25;;;8.00;52.41
46778;BME280;32536;47.128;8.746;2023-02-13T11:20:30;93241.28;;;8.10;51.97
46778;BME280;32536;47.128;8.746;2023-02-13T11:23:26;93233.06;;;8.18;51.14
46778;BME280;32536;47.128;8.746;2023-02-13T11:26:04;93237.78;;;8.25;52.17
46778;BME280;32536;47.128;8.746;2023-02-13T11:28:44;93243.59;;;8.31;51.63
46778;BME280;32536;47.128;8.746;2023-02-13T11:33:51;93238.13;;;8.43;52.43
46778;BME280;32536;47.128;8.746;2023-02-13T11:36:32;93237.91;;;8.48;51.32
46778;BME280;32536;47.128;8.746;2023-02-13T11:39:04;93236.13;;;8.56;51.72
46778;BME280;32536;47.128;8.746;2023-02-13T11:41:41;93232.84;;;8.63;51.63
46778;BME280;32536;47.128;8.746;2023-02-13T11:44:28;93231.69;;;8.64;51.45
46778;BME280;32536;47.128;8.746;2023-02-13T11:47:00;93234.09;;;8.69;51.37
46778;BME280;32536;47.128;8.746;2023-02-13T11:49:32;93244.06;;;8.72;51.71
46778;BME280;32536;47.128;8.746;2023-02-13T11:52:04;93241.91;;;8.78;52.14
46778;BME280;32536;47.128;8.746;2023-02-13T11:54:37;93236.19;;;8.79;51.48
46778;BME280;32536;47.128;8.746;2023-02-13T11:57:19;93230.91;;;8.83;52.06
46778;BME280;32536;47.128;8.746;2023-02-13T11:59:48;93238.56;;;8.85;51.97
46778;BME280;32536;47.128;8.746;2023-02-13T12:02:23;93239.28;;;8.81;52.12
46778;BME280;32536;47.128;8.746;2023-02-13T12:05:36;93236.25;;;8.83;52.12
46778;BME280;32536;47.128;8.746;2023-02-13T12:08:02;93235.97;;;8.88;52.05
46778;BME280;32536;47.128;8.746;2023-02-13T12:10:32;93234.56;;;8.94;52.48
46778;BME280;32536;47.128;8.746;2023-02-13T12:15:38;93236.00;;;9.11;52.32
46778;BME280;32536;47.128;8.746;2023-02-13T12:23:34;93239.75;;;9.30;51.54
46778;BME280;32536;47.128;8.746;2023-02-13T12:26:48;93236.50;;;9.40;51.35
46778;BME280;32536;47.128;8.746;2023-02-13T12:41:14;93227.31;;;9.65;50.63
46778;BME280;32536;47.128;8.746;2023-02-13T12:44:04;93224.03;;;9.75;50.94
46778;BME280;32536;47.128;8.746;2023-02-13T12:47:20;93221.88;;;9.84;50.63
46778;BME280;32536;47.128;8.746;2023-02-13T13:16:29;93207.44;;;10.46;51.12
46778;BME280;32536;47.128;8.746;2023-02-13T13:21:44;93207.09;;;10.51;52.11
46778;BME280;32536;47.128;8.746;2023-02-13T13:25:03;93203.63;;;10.51;51.26
46778;BME280;32536;47.128;8.746;2023-02-13T13:27:42;93199.47;;;10.53;51.47
46778;BME280;32536;47.128;8.746;2023-02-13T13:30:18;93200.28;;;10.57;50.79
46778;BME280;32536;47.128;8.746;2023-02-13T13:32:53;93198.06;;;10.63;51.27
46778;BME280;32536;47.128;8.746;2023-02-13T13:38:27;93202.00;;;10.73;50.81
46778;BME280;32536;47.128;8.746;2023-02-13T13:49:50;93207.19;;;10.93;51.75
46778;BME280;32536;47.128;8.746;2023-02-13T13:54:55;93204.56;;;11.00;51.61
46778;BME280;32536;47.128;8.746;2023-02-13T13:57:24;93200.75;;;11.04;51.75
46778;BME280;32536;47.128;8.746;2023-02-13T14:02:41;93207.06;;;11.19;51.25
46778;BME280;32536;47.128;8.746;2023-02-13T14:05:24;93199.03;;;11.23;51.88
46778;BME280;32536;47.128;8.746;2023-02-13T14:07:59;93200.59;;;11.28;52.40
46778;BME280;32536;47.128;8.746;2023-02-13T14:31:19;93197.50;;;11.71;51.77
46778;BME280;32536;47.128;8.746;2023-02-13T14:36:29;93200.19;;;11.74;51.46
46778;BME280;32536;47.128;8.746;2023-02-13T14:44:46;93192.59;;;11.87;50.91
46778;BME280;32536;47.128;8.746;2023-02-13T14:47:24;93202.97;;;11.89;50.84
46778;BME280;32536;47.128;8.746;2023-02-13T14:50:00;93196.06;;;11.88;51.49
46778;BME280;32536;47.128;8.746;2023-02-13T14:52:33;93199.16;;;11.90;51.15
46778;BME280;32536;47.128;8.746;2023-02-13T14:55:07;93201.44;;;11.91;50.90
46778;BME280;32536;47.128;8.746;2023-02-13T14:57:44;93205.31;;;11.94;51.06
46778;BME280;32536;47.128;8.746;2023-02-13T15:02:58;93194.59;;;11.94;50.72
46778;BME280;32536;47.128;8.746;2023-02-13T15:05:55;93201.53;;;11.98;50.50
46778;BME280;32536;47.128;8.746;2023-02-13T15:08:27;93206.53;;;12.00;50.82
46778;BME280;32536;47.128;8.746;2023-02-13T15:11:03;93205.00;;;11.99;51.07
46778;BME280;32536;47.128;8.746;2023-02-13T15:13:50;93202.25;;;11.92;51.18
46778;BME280;32536;47.128;8.746;2023-02-13T15:16:16;93201.81;;;11.86;51.61
46778;BME280;32536;47.128;8.746;2023-02-13T15:18:48;93201.00;;;11.78;50.70
46778;BME280;32536;47.128;8.746;2023-02-13T15:21:24;93202.50;;;11.72;50.02
46778;BME280;32536;47.128;8.746;2023-02-13T15:23:57;93207.84;;;11.68;51.58
46778;BME280;32536;47.128;8.746;2023-02-13T15:26:25;93199.69;;;11.58;50.27
46778;BME280;32536;47.128;8.746;2023-02-13T15:29:01;93204.25;;;11.50;50.26
46778;BME280;32536;47.128;8.746;2023-02-13T15:31:41;93200.38;;;11.44;51.77
46778;BME280;32536;47.128;8.746;2023-02-13T15:34:32;93203.00;;;11.40;49.53
46778;BME280;32536;47.128;8.746;2023-02-13T15:37:00;93201.84;;;11.41;51.46
46778;BME280;32536;47.128;8.746;2023-02-13T15:39:30;93204.53;;;11.41;50.92
46778;BME280;32536;47.128;8.746;2023-02-13T15:41:59;93193.41;;;11.39;50.86
46778;BME280;32536;47.128;8.746;2023-02-13T15:44:30;93197.59;;;11.33;50.42
46778;BME280;32536;47.128;8.746;2023-02-13T15:47:04;93204.44;;;11.27;50.55
46778;BME280;32536;47.128;8.746;2023-02-13T15:49:45;93198.63;;;11.21;50.58
46778;BME280;32536;47.128;8.746;2023-02-13T15:52:35;93192.81;;;11.15;49.40
46778;BME280;32536;47.128;8.746;2023-02-13T15:55:03;93188.16;;;11.09;50.79
46778;BME280;32536;47.128;8.746;2023-02-13T15:57:30;93195.78;;;11.03;51.66
46778;BME280;32536;47.128;8.746;2023-02-13T15:59:59;93188.06;;;10.98;50.59
46778;BME280;32536;47.128;8.746;2023-02-13T16:02:40;93196.03;;;10.91;49.07
46778;BME280;32536;47.128;8.746;2023-02-13T16:05:13;93200.59;;;10.86;50.99
46778;BME280;32536;47.128;8.746;2023-02-13T16:07:48;93196.28;;;10.78;49.10
46778;BME280;32536;47.128;8.746;2023-02-13T16:10:34;93196.63;;;10.73;49.65
46778;BME280;32536;47.128;8.746;2023-02-13T16:13:04;93197.34;;;10.70;50.61
46778;BME280;32536;47.128;8.746;2023-02-13T16:15:34;93196.84;;;10.61;50.68
46778;BME280;32536;47.128;8.746;2023-02-13T16:18:02;93191.41;;;10.50;50.05
46778;BME280;32536;47.128;8.746;2023-02-13T16:20:32;93198.13;;;10.36;49.38
46778;BME280;32536;47.128;8.746;2023-02-13T16:23:02;93197.13;;;10.21;49.30
46778;BME280;32536;47.128;8.746;2023-02-13T16:25:39;93192.84;;;10.13;49.93
46778;BME280;32536;47.128;8.746;2023-02-13T16:28:21;93198.84;;;10.06;48.49
46778;BME280;32536;47.128;8.746;2023-02-13T16:30:53;93199.94;;;10.02;49.15
46778;BME280;32536;47.128;8.746;2023-02-13T16:33:30;93195.22;;;9.91;49.55
46778;BME280;32536;47.128;8.746;2023-02-13T16:51:36;93201.34;;;9.42;48.44
46778;BME280;32536;47.128;8.746;2023-02-13T16:56:54;93207.72;;;9.34;49.62
46778;BME280;32536;47.128;8.746;2023-02-13T17:02:19;93207.91;;;9.21;50.52